Time,TemperatureF,DewpointF,PressureIn,WindDirection,WindDirectionDegrees,WindSpeedMPH,WindSpeedGustMPH,Humidity,HourlyPrecipIn,Conditions,Clouds,dailyrainin,SoftwareType,DateUTC
2013-04-08 00:01:00,50.0,35.4,29.88,NNW,345,9.0,15.5,57,0.00,,,0.00,VWS V14.00,2013-04-08 04:01:00,
2013-04-08 00:02:00,49.0,36.6,29.89,North,8,6.4,10.9,62,0.00,,,0.00,VWS V14.00,2013-04-08 04:02:00,
2013-04-08 00:05:00,49.0,36.6,29.89,North,356,6.9,10.9,62,0.00,,,0.00,VWS V14.00,2013-04-08 04:05:00,
2013-04-08 00:07:00,50.0,35.6,29.88,North,359,8.7,13.2,57,0.00,,,0.00,VWS V14.00,2013-04-08 04:07:00,
2013-04-08 00:08:00,48.8,36.5,29.89,North,6,6.3,10.9,62,0.00,,,0.00,VWS V14.00,2013-04-08 04:08:00,
2013-04-08 00:11:00,48.8,36.6,29.89,North,349,7.3,10.9,63,0.00,,,0.00,VWS V14.00,2013-04-08 04:11:00,
2013-04-08 00:13:00,49.9,35.7,29.89,North,349,7.3,15.5,58,0.00,,,0.00,VWS V14.00,2013-04-08 04:13:00,
2013-04-08 00:16:00,49.8,35.7,29.88,NNW,335,7.9,15.5,58,0.00,,,0.00,VWS V14.00,2013-04-08 04:16:00,
2013-04-08 00:17:00,48.6,36.6,29.89,North,8,8.9,10.9,63,0.00,,,0.00,VWS V14.00,2013-04-08 04:17:00,
2013-04-08 00:20:00,48.7,36.8,29.89,North,1,4.4,10.9,63,0.00,,,0.00,VWS V14.00,2013-04-08 04:20:00,
2013-04-08 00:22:00,49.7,35.9,29.89,North,356,6.3,13.9,59,0.00,,,0.00,VWS V14.00,2013-04-08 04:22:00,
2013-04-08 00:23:00,48.5,36.7,29.89,NNW,343,8.5,10.9,64,0.00,,,0.00,VWS V14.00,2013-04-08 04:23:00,
2013-04-08 00:25:00,49.6,35.9,29.89,North,6,8.2,13.9,59,0.00,,,0.00,VWS V14.00,2013-04-08 04:25:00,
2013-04-08 00:26:00,48.6,36.9,29.89,NNW,347,7.9,10.9,64,0.00,,,0.00,VWS V14.00,2013-04-08 04:26:00,
2013-04-08 00:30:00,48.5,36.9,29.89,North,350,7.3,11.9,64,0.00,,,0.00,VWS V14.00,2013-04-08 04:30:00,
2013-04-08 00:31:00,49.5,36.0,29.89,North,8,9.2,12.4,60,0.00,,,0.00,VWS V14.00,2013-04-08 04:31:00,
2013-04-08 00:33:00,48.4,36.9,29.89,NW,314,4.4,11.9,64,0.00,,,0.00,VWS V14.00,2013-04-08 04:33:00,
2013-04-08 00:36:00,49.4,36.1,29.89,North,356,4.9,12.4,60,0.00,,,0.00,VWS V14.00,2013-04-08 04:36:00,
2013-04-08 00:39:00,48.3,37.0,29.89,NNW,330,6.4,11.9,65,0.00,,,0.00,VWS V14.00,2013-04-08 04:39:00,
2013-04-08 00:42:00,48.3,37.1,29.89,NNW,346,5.7,11.9,65,0.00,,,0.00,VWS V14.00,2013-04-08 04:42:00,
2013-04-08 00:46:00,49.3,36.3,29.89,North,350,8.0,12.4,61,0.00,,,0.00,VWS V14.00,2013-04-08 04:46:00,
2013-04-08 00:48:00,48.0,37.0,29.89,NNW,332,0.0,11.9,66,0.00,,,0.00,VWS V14.00,2013-04-08 04:48:00,
2013-04-08 00:50:00,33.0,13.7,30.17,SE,139,0.0,24.9,44,0.00,,,0.00,VWS V14.00,2013-04-08 04:50:00,
2013-04-08 00:51:00,48.1,37.2,29.89,NNW,332,6.5,11.9,66,0.00,,,0.00,VWS V14.00,2013-04-08 04:51:00,
2013-04-08 00:53:00,49.0,36.4,29.89,North,359,3.2,10.9,62,0.00,,,0.00,VWS V14.00,2013-04-08 04:53:00,
2013-04-08 00:57:00,47.9,37.2,29.89,NW,325,8.9,11.9,66,0.00,,,0.00,VWS V14.00,2013-04-08 04:57:00,
2013-04-08 01:00:00,47.8,37.2,29.89,NW,309,4.6,11.9,67,0.00,,,0.00,VWS V14.00,2013-04-08 05:00:00,
2013-04-08 01:03:00,47.7,37.2,29.89,NNW,338,7.3,11.9,67,0.00,,,0.00,VWS V14.00,2013-04-08 05:03:00,
2013-04-08 01:06:00,47.8,37.4,29.89,NNW,346,7.0,11.9,67,0.00,,,0.00,VWS V14.00,2013-04-08 05:06:00,
2013-04-08 01:09:00,47.8,37.4,29.89,NNW,333,7.9,11.9,67,0.00,,,0.00,VWS V14.00,2013-04-08 05:09:00,
2013-04-08 01:12:00,47.6,37.2,29.89,NNW,328,6.9,11.9,67,0.00,,,0.00,VWS V14.00,2013-04-08 05:12:00,
2013-04-08 01:15:00,47.7,37.3,29.89,NNW,332,6.2,11.9,67,0.00,,,0.00,VWS V14.00,2013-04-08 05:15:00,
2013-04-08 01:18:00,47.7,37.3,29.89,NNW,335,6.5,11.9,67,0.00,,,0.00,VWS V14.00,2013-04-08 05:18:00,
2013-04-08 01:21:00,47.7,37.4,29.89,NNW,332,7.4,11.9,67,0.00,,,0.00,VWS V14.00,2013-04-08 05:21:00,
2013-04-08 01:24:00,47.7,37.4,29.89,NNW,342,9.9,13.0,67,0.00,,,0.00,VWS V14.00,2013-04-08 05:24:00,
2013-04-08 01:28:00,47.6,37.3,29.89,NW,322,8.6,13.0,67,0.00,,,0.00,VWS V14.00,2013-04-08 05:28:00,
2013-04-08 01:31:00,47.5,37.2,29.89,NW,322,7.6,13.0,67,0.00,,,0.00,VWS V14.00,2013-04-08 05:31:00,
2013-04-08 01:34:00,47.5,37.2,29.89,NNW,332,9.5,13.0,67,0.00,,,0.00,VWS V14.00,2013-04-08 05:34:00,
2013-04-08 01:37:00,47.3,37.2,29.89,NW,325,9.5,13.0,68,0.00,,,0.00,VWS V14.00,2013-04-08 05:37:00,
2013-04-08 01:40:00,47.3,37.3,29.89,NNW,343,8.7,13.0,68,0.00,,,0.00,VWS V14.00,2013-04-08 05:40:00,
2013-04-08 01:43:00,47.1,37.2,29.89,NNW,336,7.7,13.0,68,0.00,,,0.00,VWS V14.00,2013-04-08 05:43:00,
2013-04-08 01:46:00,47.1,37.3,29.89,NNW,336,5.5,13.0,69,0.00,,,0.00,VWS V14.00,2013-04-08 05:46:00,
2013-04-08 01:49:00,46.9,37.2,29.90,NNW,328,5.9,13.0,69,0.00,,,0.00,VWS V14.00,2013-04-08 05:49:00,
2013-04-08 01:52:00,46.7,37.2,29.90,NW,322,6.8,13.0,69,0.00,,,0.00,VWS V14.00,2013-04-08 05:52:00,
2013-04-08 01:55:00,46.6,37.2,29.90,NW,325,6.5,13.0,70,0.00,,,0.00,VWS V14.00,2013-04-08 05:55:00,
2013-04-08 01:58:00,46.4,37.2,29.90,NW,323,7.7,13.0,70,0.00,,,0.00,VWS V14.00,2013-04-08 05:58:00,
2013-04-08 02:01:00,46.2,37.2,29.90,NNW,335,8.3,13.0,71,0.00,,,0.00,VWS V14.00,2013-04-08 06:01:00,
2013-04-08 02:04:00,46.1,37.3,29.90,NNW,336,9.1,13.0,71,0.00,,,0.00,VWS V14.00,2013-04-08 06:04:00,
2013-04-08 02:07:00,46.0,37.4,29.90,NNW,333,5.7,13.0,72,0.00,,,0.00,VWS V14.00,2013-04-08 06:07:00,
2013-04-08 02:10:00,45.8,37.3,29.90,NW,325,5.0,13.0,72,0.00,,,0.00,VWS V14.00,2013-04-08 06:10:00,
2013-04-08 02:13:00,45.7,37.5,29.89,NNW,335,7.8,13.0,73,0.00,,,0.00,VWS V14.00,2013-04-08 06:13:00,
2013-04-08 02:16:00,45.5,37.4,29.89,North,354,7.2,13.0,73,0.00,,,0.00,VWS V14.00,2013-04-08 06:16:00,
2013-04-08 02:23:00,45.3,37.5,29.90,NNW,347,6.2,13.0,74,0.00,,,0.00,VWS V14.00,2013-04-08 06:23:00,
2013-04-08 02:26:00,45.1,37.3,29.90,NW,323,7.5,13.0,74,0.00,,,0.00,VWS V14.00,2013-04-08 06:26:00,
2013-04-08 02:29:00,45.0,37.2,29.90,NNW,329,0.0,13.0,74,0.00,,,0.00,VWS V14.00,2013-04-08 06:29:00,
2013-04-08 02:32:00,45.0,37.1,29.90,NNW,335,5.7,13.0,74,0.00,,,0.00,VWS V14.00,2013-04-08 06:32:00,
2013-04-08 02:38:00,44.8,36.9,29.90,NW,319,8.5,13.0,74,0.00,,,0.00,VWS V14.00,2013-04-08 06:38:00,
2013-04-08 02:41:00,44.6,36.7,29.90,NNW,330,3.3,13.0,74,0.00,,,0.00,VWS V14.00,2013-04-08 06:41:00,
2013-04-08 02:47:00,44.5,36.5,29.91,NW,323,4.8,13.0,73,0.00,,,0.00,VWS V14.00,2013-04-08 06:47:00,
2013-04-08 02:50:00,44.4,36.3,29.91,WNW,298,0.0,13.0,73,0.00,,,0.00,VWS V14.00,2013-04-08 06:50:00,
2013-04-08 02:53:00,44.4,36.1,29.92,West,278,0.0,13.0,72,0.00,,,0.00,VWS V14.00,2013-04-08 06:53:00,
2013-04-08 02:56:00,44.5,36.2,29.91,WNW,300,3.5,13.0,72,0.00,,,0.00,VWS V14.00,2013-04-08 06:56:00,
2013-04-08 02:59:00,44.2,35.8,29.91,WNW,295,3.4,13.0,72,0.00,,,0.00,VWS V14.00,2013-04-08 06:59:00,
2013-04-08 03:03:00,44.3,35.9,29.91,WNW,291,0.0,13.0,72,0.00,,,0.00,VWS V14.00,2013-04-08 07:03:00,
2013-04-08 03:06:00,44.1,35.7,29.92,NW,304,0.0,13.0,72,0.00,,,0.00,VWS V14.00,2013-04-08 07:06:00,
2013-04-08 03:09:00,44.1,35.7,29.92,WNW,300,0.0,13.0,72,0.00,,,0.00,VWS V14.00,2013-04-08 07:09:00,
2013-04-08 03:12:00,44.1,35.7,29.92,WNW,302,0.0,13.0,72,0.00,,,0.00,VWS V14.00,2013-04-08 07:12:00,
2013-04-08 03:15:00,44.1,35.6,29.92,NW,318,3.0,13.0,72,0.00,,,0.00,VWS V14.00,2013-04-08 07:15:00,
2013-04-08 03:18:00,44.0,35.5,29.92,NW,316,5.3,13.0,72,0.00,,,0.00,VWS V14.00,2013-04-08 07:18:00,
2013-04-08 03:21:00,43.9,35.4,29.92,NW,316,3.4,13.0,72,0.00,,,0.00,VWS V14.00,2013-04-08 07:21:00,
2013-04-08 03:27:00,43.6,35.0,29.92,NW,311,3.1,13.0,71,0.00,,,0.00,VWS V14.00,2013-04-08 07:27:00,
2013-04-08 03:30:00,43.6,34.8,29.93,West,266,0.0,13.0,71,0.00,,,0.00,VWS V14.00,2013-04-08 07:30:00,
2013-04-08 03:37:00,43.5,34.5,29.92,NNW,332,0.0,13.0,70,0.00,,,0.00,VWS V14.00,2013-04-08 07:37:00,
2013-04-08 03:43:00,43.2,34.1,29.92,WNW,288,5.5,13.0,70,0.00,,,0.00,VWS V14.00,2013-04-08 07:43:00,
2013-04-08 03:46:00,43.1,34.0,29.94,NNW,328,0.0,13.0,70,0.00,,,0.00,VWS V14.00,2013-04-08 07:46:00,
2013-04-08 03:58:00,42.8,33.6,29.94,WNW,292,0.0,13.0,70,0.00,,,0.00,VWS V14.00,2013-04-08 07:58:00,
2013-04-08 04:08:00,42.5,33.3,29.94,NNW,329,4.2,13.0,70,0.00,,,0.00,VWS V14.00,2013-04-08 08:08:00,
2013-04-08 04:11:00,42.4,33.3,29.94,NW,325,5.2,13.0,70,0.00,,,0.00,VWS V14.00,2013-04-08 08:11:00,
2013-04-08 04:14:00,42.3,33.3,29.94,NNW,329,4.7,13.0,70,0.00,,,0.00,VWS V14.00,2013-04-08 08:14:00,
2013-04-08 04:17:00,42.3,33.4,29.95,WNW,288,0.0,13.0,70,0.00,,,0.00,VWS V14.00,2013-04-08 08:17:00,
2013-04-08 04:29:00,42.0,33.4,29.95,WNW,285,0.0,13.0,71,0.00,,,0.00,VWS V14.00,2013-04-08 08:29:00,
2013-04-08 04:30:00,43.6,34.8,29.93,NNW,342,4.6,13.0,71,0.00,,,0.00,VWS V14.00,2013-04-08 08:30:00,
2013-04-08 04:38:00,41.9,33.4,29.95,NW,309,0.0,13.0,72,0.00,,,0.00,VWS V14.00,2013-04-08 08:38:00,
2013-04-08 04:47:00,41.7,33.1,29.95,NNW,335,4.3,13.0,71,0.00,,,0.00,VWS V14.00,2013-04-08 08:47:00,
2013-04-08 04:49:00,42.9,33.8,29.94,West,260,0.0,13.0,70,0.00,,,0.00,VWS V14.00,2013-04-08 08:49:00,
2013-04-08 04:54:00,41.2,32.7,29.95,NW,315,0.0,13.0,71,0.00,,,0.00,VWS V14.00,2013-04-08 08:54:00,
2013-04-08 04:58:00,42.7,33.5,29.93,NW,326,7.8,13.0,70,0.00,,,0.00,VWS V14.00,2013-04-08 08:58:00,
2013-04-08 05:00:00,41.2,32.7,29.96,WNW,301,0.0,13.0,72,0.00,,,0.00,VWS V14.00,2013-04-08 09:00:00,
2013-04-08 05:09:00,41.1,32.8,29.96,NW,322,5.1,13.0,72,0.00,,,0.00,VWS V14.00,2013-04-08 09:09:00,
2013-04-08 05:16:00,42.2,33.5,29.95,WNW,285,0.0,13.0,71,0.00,,,0.00,VWS V14.00,2013-04-08 09:16:00,
2013-04-08 05:23:00,42.1,33.5,29.95,NW,305,0.0,13.0,71,0.00,,,0.00,VWS V14.00,2013-04-08 09:23:00,
2013-04-08 05:29:00,42.0,33.5,29.95,NW,304,4.7,13.0,72,0.00,,,0.00,VWS V14.00,2013-04-08 09:29:00,
2013-04-08 05:38:00,41.7,33.2,29.95,NW,319,5.2,13.0,72,0.00,,,0.00,VWS V14.00,2013-04-08 09:38:00,
2013-04-08 05:47:00,41.6,33.0,29.95,WNW,284,0.0,13.0,71,0.00,,,0.00,VWS V14.00,2013-04-08 09:47:00,
2013-04-08 05:53:00,41.3,32.8,29.96,NW,315,0.0,13.0,72,0.00,,,0.00,VWS V14.00,2013-04-08 09:53:00,
2013-04-08 05:59:00,41.3,32.9,29.96,NW,318,1.2,13.0,72,0.00,,,0.00,VWS V14.00,2013-04-08 09:59:00,
2013-04-08 06:04:00,40.6,33.0,29.99,NW,312,0.0,13.0,74,0.00,,,0.00,VWS V14.00,2013-04-08 10:04:00,
2013-04-08 06:12:00,41.0,32.8,29.96,NW,319,0.0,13.0,72,0.00,,,0.00,VWS V14.00,2013-04-08 10:12:00,
2013-04-08 06:16:00,40.6,33.1,30.00,NW,312,0.0,13.0,74,0.00,,,0.00,VWS V14.00,2013-04-08 10:16:00,
2013-04-08 06:18:00,41.0,33.0,29.97,NW,319,0.0,13.0,73,0.00,,,0.00,VWS V14.00,2013-04-08 10:18:00,
2013-04-08 06:24:00,40.9,32.9,29.97,NW,319,0.0,13.0,73,0.00,,,0.00,VWS V14.00,2013-04-08 10:24:00,
2013-04-08 06:29:00,40.4,33.0,30.00,NW,312,0.0,13.0,75,0.00,,,0.00,VWS V14.00,2013-04-08 10:29:00,
2013-04-08 06:30:00,40.9,32.9,29.97,NNW,332,4.3,13.0,73,0.00,,,0.00,VWS V14.00,2013-04-08 10:30:00,
2013-04-08 06:35:00,40.4,33.1,30.00,NW,312,0.0,13.0,75,0.00,,,0.00,VWS V14.00,2013-04-08 10:35:00,
2013-04-08 06:39:00,40.9,33.0,29.98,NW,312,0.0,13.0,73,0.00,,,0.00,VWS V14.00,2013-04-08 10:39:00,
2013-04-08 06:45:00,40.7,32.9,29.98,NW,312,0.0,13.0,74,0.00,,,0.00,VWS V14.00,2013-04-08 10:45:00,
2013-04-08 06:52:00,40.6,32.9,29.99,NW,312,0.0,13.0,74,0.00,,,0.00,VWS V14.00,2013-04-08 10:52:00,
2013-04-08 06:58:00,40.7,33.0,29.99,NW,312,0.0,13.0,74,0.00,,,0.00,VWS V14.00,2013-04-08 10:58:00,
2013-04-08 07:04:00,40.6,33.0,30.00,NW,312,0.0,13.0,74,0.00,,,0.00,VWS V14.00,2013-04-08 11:04:00,
2013-04-08 07:10:00,40.5,33.0,30.00,NW,312,0.0,13.0,74,0.00,,,0.00,VWS V14.00,2013-04-08 11:10:00,
2013-04-08 07:19:00,40.6,33.2,30.00,NW,312,0.0,13.0,75,0.00,,,0.00,VWS V14.00,2013-04-08 11:19:00,
2013-04-08 07:35:00,40.5,33.3,30.01,NW,312,0.0,13.0,75,0.00,,,0.00,VWS V14.00,2013-04-08 11:35:00,
2013-04-08 07:44:00,40.6,33.4,30.01,NW,316,2.7,13.0,75,0.00,,,0.00,VWS V14.00,2013-04-08 11:44:00,
2013-04-08 07:54:00,40.7,33.5,30.02,WNW,295,0.0,13.0,75,0.00,,,0.00,VWS V14.00,2013-04-08 11:54:00,
2013-04-08 08:00:00,40.7,33.5,30.02,NW,322,3.0,13.0,75,0.00,,,0.00,VWS V14.00,2013-04-08 12:00:00,
2013-04-08 08:06:00,40.8,33.5,30.02,NW,309,0.0,13.0,75,0.00,,,0.00,VWS V14.00,2013-04-08 12:06:00,
2013-04-08 08:12:00,40.9,33.7,30.02,NW,304,0.0,13.0,75,0.00,,,0.00,VWS V14.00,2013-04-08 12:12:00,
2013-04-08 08:18:00,40.8,33.5,30.02,NW,318,0.0,13.0,75,0.00,,,0.00,VWS V14.00,2013-04-08 12:18:00,
2013-04-08 08:24:00,40.9,33.5,30.02,NW,322,0.0,13.0,75,0.00,,,0.00,VWS V14.00,2013-04-08 12:24:00,
2013-04-08 08:30:00,40.9,33.6,30.02,NNW,328,0.0,13.0,75,0.00,,,0.00,VWS V14.00,2013-04-08 12:30:00,
2013-04-08 08:36:00,41.1,33.7,30.02,NNW,343,0.0,13.0,75,0.00,,,0.00,VWS V14.00,2013-04-08 12:36:00,
2013-04-08 08:42:00,41.0,33.6,30.02,NNW,343,0.0,13.0,75,0.00,,,0.00,VWS V14.00,2013-04-08 12:42:00,
2013-04-08 08:48:00,41.7,34.2,30.02,NW,316,0.0,13.0,74,0.00,,,0.00,VWS V14.00,2013-04-08 12:48:00,
2013-04-08 08:54:00,41.7,34.1,30.02,WNW,290,0.0,13.0,74,0.00,,,0.00,VWS V14.00,2013-04-08 12:54:00,
2013-04-08 09:00:00,41.9,34.1,30.02,NW,318,3.2,13.0,74,0.00,,,0.00,VWS V14.00,2013-04-08 13:00:00,
2013-04-08 09:06:00,42.0,34.0,30.03,NW,308,4.2,13.0,73,0.00,,,0.00,VWS V14.00,2013-04-08 13:06:00,
2013-04-08 09:12:00,42.1,34.0,30.02,West,263,0.0,13.0,73,0.00,,,0.00,VWS V14.00,2013-04-08 13:12:00,
2013-04-08 09:19:00,42.3,34.0,30.03,NW,315,3.5,13.0,72,0.00,,,0.00,VWS V14.00,2013-04-08 13:19:00,
2013-04-08 09:25:00,42.4,33.8,30.03,NW,307,0.0,13.0,71,0.00,,,0.00,VWS V14.00,2013-04-08 13:25:00,
2013-04-08 09:31:00,42.5,33.8,30.03,NNW,330,3.5,13.0,71,0.00,,,0.00,VWS V14.00,2013-04-08 13:31:00,
2013-04-08 09:37:00,42.8,34.0,30.02,WNW,292,0.0,13.0,71,0.00,,,0.00,VWS V14.00,2013-04-08 13:37:00,
2013-04-08 09:43:00,43.0,34.0,30.02,WNW,287,0.0,13.0,70,0.00,,,0.00,VWS V14.00,2013-04-08 13:43:00,
2013-04-08 09:49:00,43.4,34.2,30.03,NNW,333,0.0,13.0,70,0.00,,,0.00,VWS V14.00,2013-04-08 13:49:00,
2013-04-08 09:55:00,43.8,34.3,30.03,NNW,333,0.0,13.0,69,0.00,,,0.00,VWS V14.00,2013-04-08 13:55:00,
2013-04-08 10:01:00,44.2,34.2,30.03,NNW,333,0.0,13.0,68,0.00,,,0.00,VWS V14.00,2013-04-08 14:01:00,
2013-04-08 10:07:00,44.4,33.9,30.04,NW,308,0.0,13.0,66,0.00,,,0.00,VWS V14.00,2013-04-08 14:07:00,
2013-04-08 10:13:00,44.5,33.8,30.05,NW,308,0.0,13.0,66,0.00,,,0.00,VWS V14.00,2013-04-08 14:13:00,
2013-04-08 10:19:00,44.4,33.4,30.05,NW,311,0.0,13.0,65,0.00,,,0.00,VWS V14.00,2013-04-08 14:19:00,
2013-04-08 10:25:00,44.5,33.5,30.06,NW,311,0.0,13.0,65,0.00,,,0.00,VWS V14.00,2013-04-08 14:25:00,
2013-04-08 10:35:00,44.7,33.6,30.07,WNW,291,0.0,13.0,65,0.00,,,0.00,VWS V14.00,2013-04-08 14:35:00,
2013-04-08 10:41:00,44.9,33.6,30.06,WNW,291,0.0,13.0,64,0.00,,,0.00,VWS V14.00,2013-04-08 14:41:00,
2013-04-08 10:47:00,44.9,33.4,30.07,NW,311,0.0,13.0,64,0.00,,,0.00,VWS V14.00,2013-04-08 14:47:00,
2013-04-08 10:53:00,45.3,33.5,30.07,WSW,248,0.0,13.0,63,0.00,,,0.00,VWS V14.00,2013-04-08 14:53:00,
2013-04-08 10:59:00,45.6,33.3,30.07,WSW,248,0.0,13.0,62,0.00,,,0.00,VWS V14.00,2013-04-08 14:59:00,
2013-04-08 11:05:00,46.0,33.5,30.07,WNW,292,0.0,13.0,61,0.00,,,0.00,VWS V14.00,2013-04-08 15:05:00,
2013-04-08 11:14:00,46.3,33.1,30.08,WNW,292,0.0,13.0,60,0.00,,,0.00,VWS V14.00,2013-04-08 15:14:00,
2013-04-08 11:21:00,47.2,33.6,30.08,WNW,292,0.0,13.0,59,0.00,,,0.00,VWS V14.00,2013-04-08 15:21:00,
2013-04-08 11:27:00,47.6,33.0,30.07,WNW,283,2.9,13.0,57,0.00,,,0.00,VWS V14.00,2013-04-08 15:27:00,
2013-04-08 11:33:00,47.9,33.0,30.08,NNW,329,0.0,13.0,56,0.00,,,0.00,VWS V14.00,2013-04-08 15:33:00,
2013-04-08 11:39:00,48.7,33.5,30.07,NW,323,0.0,13.0,55,0.00,,,0.00,VWS V14.00,2013-04-08 15:39:00,
2013-04-08 11:45:00,49.1,32.9,30.06,North,350,0.0,13.0,53,0.00,,,0.00,VWS V14.00,2013-04-08 15:45:00,
2013-04-08 11:51:00,49.3,32.6,30.07,NNW,340,0.0,13.0,52,0.00,,,0.00,VWS V14.00,2013-04-08 15:51:00,
2013-04-08 11:57:00,49.7,33.0,30.06,NNW,339,3.2,13.0,52,0.00,,,0.00,VWS V14.00,2013-04-08 15:57:00,
2013-04-08 12:03:00,49.9,32.5,30.06,NNW,343,5.0,13.0,51,0.00,,,0.00,VWS V14.00,2013-04-08 16:03:00,
2013-04-08 12:10:00,50.4,32.8,30.06,WNW,302,0.0,13.0,51,0.00,,,0.00,VWS V14.00,2013-04-08 16:10:00,
2013-04-08 12:19:00,51.1,32.7,30.06,NNW,335,4.6,13.0,49,0.00,,,0.00,VWS V14.00,2013-04-08 16:19:00,
2013-04-08 12:25:00,51.6,32.7,30.06,North,4,3.5,13.0,48,0.00,,,0.00,VWS V14.00,2013-04-08 16:25:00,
2013-04-08 12:31:00,52.3,33.2,30.05,WNW,294,5.0,13.0,48,0.00,,,0.00,VWS V14.00,2013-04-08 16:31:00,
2013-04-08 12:37:00,52.9,32.9,30.04,North,353,5.0,13.0,46,0.00,,,0.00,VWS V14.00,2013-04-08 16:37:00,
2013-04-08 12:43:00,53.1,32.3,30.04,NNW,330,2.9,13.0,45,0.00,,,0.00,VWS V14.00,2013-04-08 16:43:00,
2013-04-08 12:49:00,53.7,32.4,30.04,NW,304,0.0,13.0,44,0.00,,,0.00,VWS V14.00,2013-04-08 16:49:00,
2013-04-08 12:55:00,54.1,32.1,30.04,NW,326,0.0,13.0,43,0.00,,,0.00,VWS V14.00,2013-04-08 16:55:00,
2013-04-08 13:02:00,54.5,31.8,30.05,NW,321,4.3,13.0,42,0.00,,,0.00,VWS V14.00,2013-04-08 17:02:00,
2013-04-08 13:08:00,54.7,31.5,30.05,NNW,335,5.2,13.0,41,0.00,,,0.00,VWS V14.00,2013-04-08 17:08:00,
2013-04-08 13:14:00,55.0,31.2,30.05,West,259,0.0,13.0,40,0.00,,,0.00,VWS V14.00,2013-04-08 17:14:00,
2013-04-08 13:20:00,55.4,31.4,30.05,West,281,0.0,13.0,40,0.00,,,0.00,VWS V14.00,2013-04-08 17:20:00,
2013-04-08 13:26:00,55.7,31.0,30.04,SSW,198,0.0,13.0,39,0.00,,,0.00,VWS V14.00,2013-04-08 17:26:00,
2013-04-08 13:32:00,56.1,31.2,30.04,NNW,342,0.0,13.0,39,0.00,,,0.00,VWS V14.00,2013-04-08 17:32:00,
2013-04-08 13:39:00,56.6,31.3,30.04,West,276,0.0,13.0,38,0.00,,,0.00,VWS V14.00,2013-04-08 17:39:00,
2013-04-08 13:45:00,56.9,31.0,30.04,North,6,4.5,13.0,37,0.00,,,0.00,VWS V14.00,2013-04-08 17:45:00,
2013-04-08 13:51:00,57.2,30.5,30.04,NW,326,6.3,13.0,36,0.00,,,0.00,VWS V14.00,2013-04-08 17:51:00,
2013-04-08 13:57:00,56.9,30.2,30.04,NNW,335,7.0,13.0,36,0.00,,,0.00,VWS V14.00,2013-04-08 17:57:00,
2013-04-08 14:03:00,57.1,30.6,30.04,North,10,7.6,13.0,36,0.00,,,0.00,VWS V14.00,2013-04-08 18:03:00,
2013-04-08 14:09:00,57.1,30.4,30.04,NW,323,0.0,13.0,36,0.00,,,0.00,VWS V14.00,2013-04-08 18:09:00,
2013-04-08 14:15:00,57.4,30.4,30.03,NW,315,0.0,13.0,36,0.00,,,0.00,VWS V14.00,2013-04-08 18:15:00,
2013-04-08 14:21:00,57.9,30.7,30.03,North,6,4.1,13.0,35,0.00,,,0.00,VWS V14.00,2013-04-08 18:21:00,
2013-04-08 14:27:00,58.5,31.0,30.04,North,352,6.6,13.0,35,0.00,,,0.00,VWS V14.00,2013-04-08 18:27:00,
2013-04-08 14:33:00,58.9,30.5,30.04,NNW,330,6.6,13.0,34,0.00,,,0.00,VWS V14.00,2013-04-08 18:33:00,
2013-04-08 14:40:00,58.4,29.1,30.04,WNW,295,0.0,13.0,33,0.00,,,0.00,VWS V14.00,2013-04-08 18:40:00,
2013-04-08 14:49:00,58.6,30.4,30.04,North,8,7.5,13.0,34,0.00,,,0.00,VWS V14.00,2013-04-08 18:49:00,
2013-04-08 14:55:00,59.1,29.9,30.05,North,3,2.3,13.0,33,0.00,,,0.00,VWS V14.00,2013-04-08 18:55:00,
2013-04-08 15:01:00,59.1,29.4,30.05,NW,321,2.7,13.0,32,0.00,,,0.00,VWS V14.00,2013-04-08 19:01:00,
2013-04-08 15:11:00,59.4,29.2,30.03,NNW,345,0.0,13.0,32,0.00,,,0.00,VWS V14.00,2013-04-08 19:11:00,
2013-04-08 15:17:00,59.5,28.6,30.04,WNW,288,0.0,13.0,31,0.00,,,0.00,VWS V14.00,2013-04-08 19:17:00,
2013-04-08 15:23:00,59.4,28.2,30.04,West,262,0.0,13.0,30,0.00,,,0.00,VWS V14.00,2013-04-08 19:23:00,
2013-04-08 15:29:00,59.5,28.1,30.03,NW,321,0.0,13.0,30,0.00,,,0.00,VWS V14.00,2013-04-08 19:29:00,
2013-04-08 15:35:00,59.5,28.0,30.04,North,357,0.0,13.0,30,0.00,,,0.00,VWS V14.00,2013-04-08 19:35:00,
2013-04-08 15:42:00,59.7,28.1,30.03,NW,307,0.0,13.0,30,0.00,,,0.00,VWS V14.00,2013-04-08 19:42:00,
2013-04-08 15:48:00,59.7,27.8,30.03,NW,307,0.0,13.0,30,0.00,,,0.00,VWS V14.00,2013-04-08 19:48:00,
2013-04-08 15:54:00,59.4,27.3,30.02,NW,314,0.0,13.0,29,0.00,,,0.00,VWS V14.00,2013-04-08 19:54:00,
2013-04-08 16:00:00,59.4,27.9,30.01,NW,314,0.0,13.0,30,0.00,,,0.00,VWS V14.00,2013-04-08 20:00:00,
2013-04-08 16:06:00,59.6,27.5,30.02,NW,314,0.0,13.0,29,0.00,,,0.00,VWS V14.00,2013-04-08 20:06:00,
2013-04-08 16:12:00,59.9,27.5,30.02,NNW,332,0.0,13.0,29,0.00,,,0.00,VWS V14.00,2013-04-08 20:12:00,
2013-04-08 16:18:00,60.1,27.1,30.02,NNW,329,0.0,13.0,28,0.00,,,0.00,VWS V14.00,2013-04-08 20:18:00,
2013-04-08 16:24:00,60.5,28.0,30.02,NNE,15,0.0,13.0,29,0.00,,,0.00,VWS V14.00,2013-04-08 20:24:00,
2013-04-08 16:30:00,60.8,27.2,30.01,NW,325,0.0,13.0,28,0.00,,,0.00,VWS V14.00,2013-04-08 20:30:00,
2013-04-08 16:37:00,61.7,27.2,30.01,NNW,345,0.0,13.0,27,0.00,,,0.00,VWS V14.00,2013-04-08 20:37:00,
2013-04-08 16:43:00,63.9,27.3,30.00,NNW,345,0.0,13.0,25,0.00,,,0.00,VWS V14.00,2013-04-08 20:43:00,
2013-04-08 16:52:00,68.7,24.8,30.01,NNW,340,0.0,13.0,19,0.00,,,0.00,VWS V14.00,2013-04-08 20:52:00,
2013-04-08 16:58:00,70.7,23.4,30.00,North,0,0.0,13.0,17,0.00,,,0.00,VWS V14.00,2013-04-08 20:58:00,
2013-04-08 17:05:00,70.3,21.9,30.00,North,0,0.0,13.0,16,0.00,,,0.00,VWS V14.00,2013-04-08 21:05:00,
2013-04-08 17:11:00,70.3,22.3,30.00,North,0,0.0,13.0,16,0.00,,,0.00,VWS V14.00,2013-04-08 21:11:00,
2013-04-08 17:17:00,70.9,21.8,30.00,North,0,0.0,13.0,16,0.00,,,0.00,VWS V14.00,2013-04-08 21:17:00,
2013-04-08 17:23:00,72.4,20.5,30.00,North,0,0.0,13.0,14,0.00,,,0.00,VWS V14.00,2013-04-08 21:23:00,
2013-04-08 17:29:00,72.5,18.4,30.00,North,356,0.0,13.0,13,0.00,,,0.00,VWS V14.00,2013-04-08 21:29:00,
2013-04-08 17:35:00,70.6,17.9,30.00,North,356,0.0,13.0,13,0.00,,,0.00,VWS V14.00,2013-04-08 21:35:00,
2013-04-08 17:45:00,67.8,19.6,30.00,North,356,0.0,13.0,16,0.00,,,0.00,VWS V14.00,2013-04-08 21:45:00,
2013-04-08 17:51:00,66.7,20.7,30.00,North,356,0.0,13.0,17,0.00,,,0.00,VWS V14.00,2013-04-08 21:51:00,
2013-04-08 17:57:00,65.0,21.9,30.00,North,356,0.0,13.0,19,0.00,,,0.00,VWS V14.00,2013-04-08 21:57:00,
2013-04-08 18:03:00,63.6,22.8,30.00,North,356,0.0,13.0,21,0.00,,,0.00,VWS V14.00,2013-04-08 22:03:00,
2013-04-08 18:09:00,62.2,23.2,30.00,North,356,0.0,13.0,22,0.00,,,0.00,VWS V14.00,2013-04-08 22:09:00,
2013-04-08 18:15:00,61.2,23.8,30.00,North,356,0.0,13.0,24,0.00,,,0.00,VWS V14.00,2013-04-08 22:15:00,
2013-04-08 18:22:00,59.9,24.0,30.00,North,356,0.0,13.0,25,0.00,,,0.00,VWS V14.00,2013-04-08 22:22:00,
2013-04-08 18:28:00,58.9,24.6,30.00,North,356,0.0,13.0,27,0.00,,,0.00,VWS V14.00,2013-04-08 22:28:00,
2013-04-08 18:37:00,57.5,25.4,30.00,North,356,0.0,13.0,29,0.00,,,0.00,VWS V14.00,2013-04-08 22:37:00,
2013-04-08 18:43:00,56.7,25.9,30.01,North,356,0.0,13.0,30,0.00,,,0.00,VWS V14.00,2013-04-08 22:43:00,
2013-04-08 18:53:00,55.6,26.4,30.01,North,356,0.0,13.0,32,0.00,,,0.00,VWS V14.00,2013-04-08 22:53:00,
2013-04-08 18:59:00,55.2,26.8,30.01,North,356,0.0,13.0,33,0.00,,,0.00,VWS V14.00,2013-04-08 22:59:00,
2013-04-08 19:05:00,54.5,27.3,30.00,North,356,0.0,13.0,35,0.00,,,0.00,VWS V14.00,2013-04-08 23:05:00,
2013-04-08 19:15:00,53.4,27.4,30.01,North,356,0.0,13.0,36,0.00,,,0.00,VWS V14.00,2013-04-08 23:15:00,
2013-04-08 19:21:00,53.0,28.1,30.00,North,356,0.0,13.0,38,0.00,,,0.00,VWS V14.00,2013-04-08 23:21:00,
2013-04-08 19:27:00,52.2,28.9,30.00,North,356,0.0,13.0,40,0.00,,,0.00,VWS V14.00,2013-04-08 23:27:00,
2013-04-08 19:33:00,51.7,29.4,30.00,North,356,0.0,13.0,42,0.00,,,0.00,VWS V14.00,2013-04-08 23:33:00,
2013-04-08 19:39:00,51.2,29.5,30.01,North,356,0.0,13.0,43,0.00,,,0.00,VWS V14.00,2013-04-08 23:39:00,
2013-04-08 19:46:00,50.7,29.1,30.01,North,356,0.0,13.0,43,0.00,,,0.00,VWS V14.00,2013-04-08 23:46:00,
2013-04-08 19:52:00,50.4,29.4,30.01,North,356,0.0,13.0,44,0.00,,,0.00,VWS V14.00,2013-04-08 23:52:00,
2013-04-08 19:58:00,50.0,29.4,30.01,North,356,0.0,13.0,45,0.00,,,0.00,VWS V14.00,2013-04-08 23:58:00,
2013-04-08 20:04:00,49.3,29.2,30.01,North,356,0.0,13.0,46,0.00,,,0.00,VWS V14.00,2013-04-09 00:04:00,
2013-04-08 20:10:00,48.8,29.2,30.00,North,356,0.0,13.0,46,0.00,,,0.00,VWS V14.00,2013-04-09 00:10:00,
2013-04-08 20:16:00,48.4,29.3,30.01,North,356,0.0,13.0,47,0.00,,,0.00,VWS V14.00,2013-04-09 00:16:00,
2013-04-08 20:22:00,48.0,29.6,30.01,North,356,0.0,13.0,49,0.00,,,0.00,VWS V14.00,2013-04-09 00:22:00,
2013-04-08 20:28:00,47.9,29.8,30.01,North,356,0.0,13.0,49,0.00,,,0.00,VWS V14.00,2013-04-09 00:28:00,
2013-04-08 20:34:00,47.6,29.9,30.01,North,356,0.0,13.0,50,0.00,,,0.00,VWS V14.00,2013-04-09 00:34:00,
2013-04-08 20:40:00,47.2,29.9,30.02,North,356,0.0,13.0,51,0.00,,,0.00,VWS V14.00,2013-04-09 00:40:00,
2013-04-08 20:47:00,47.0,30.0,30.02,North,356,0.0,13.0,51,0.00,,,0.00,VWS V14.00,2013-04-09 00:47:00,
2013-04-08 20:53:00,47.2,30.4,30.02,North,356,0.0,13.0,52,0.00,,,0.00,VWS V14.00,2013-04-09 00:53:00,
2013-04-08 20:59:00,47.1,30.4,30.02,North,356,0.0,13.0,52,0.00,,,0.00,VWS V14.00,2013-04-09 00:59:00,
2013-04-08 21:05:00,47.2,30.8,30.01,North,356,0.0,13.0,53,0.00,,,0.00,VWS V14.00,2013-04-09 01:05:00,
2013-04-08 21:11:00,47.2,30.8,30.01,North,356,3.4,13.0,53,0.00,,,0.00,VWS V14.00,2013-04-09 01:11:00,
2013-04-08 21:17:00,47.1,30.8,30.01,SSE,148,6.1,13.0,53,0.00,,,0.00,VWS V14.00,2013-04-09 01:17:00,
2013-04-08 21:23:00,46.7,30.5,30.01,SSE,165,4.6,13.0,53,0.00,,,0.00,VWS V14.00,2013-04-09 01:23:00,
2013-04-08 21:29:00,46.1,30.0,30.01,SE,135,7.0,13.0,53,0.00,,,0.00,VWS V14.00,2013-04-09 01:29:00,
2013-04-08 21:36:00,46.0,30.1,30.00,SSE,149,5.7,13.0,54,0.00,,,0.00,VWS V14.00,2013-04-09 01:36:00,
2013-04-08 21:42:00,46.1,30.3,30.00,SSE,152,6.6,13.0,54,0.00,,,0.00,VWS V14.00,2013-04-09 01:42:00,
2013-04-08 21:48:00,45.8,30.0,29.99,SSE,149,4.5,13.0,54,0.00,,,0.00,VWS V14.00,2013-04-09 01:48:00,
2013-04-08 21:54:00,46.0,29.9,29.99,ESE,108,0.0,13.0,53,0.00,,,0.00,VWS V14.00,2013-04-09 01:54:00,
2013-04-08 22:00:00,46.2,29.8,29.99,East,82,0.0,13.0,53,0.00,,,0.00,VWS V14.00,2013-04-09 02:00:00,
2013-04-08 22:06:00,46.3,29.6,29.98,East,93,0.0,13.0,52,0.00,,,0.00,VWS V14.00,2013-04-09 02:06:00,
2013-04-08 22:12:00,46.5,29.6,29.98,East,93,0.0,13.0,51,0.00,,,0.00,VWS V14.00,2013-04-09 02:12:00,
2013-04-08 22:22:00,46.7,29.7,29.98,ESE,107,0.0,13.0,51,0.00,,,0.00,VWS V14.00,2013-04-09 02:22:00,
2013-04-08 22:28:00,47.0,29.8,29.97,ESE,104,0.0,13.0,51,0.00,,,0.00,VWS V14.00,2013-04-09 02:28:00,
2013-04-08 22:34:00,47.1,29.5,29.97,SSE,162,0.0,13.0,50,0.00,,,0.00,VWS V14.00,2013-04-09 02:34:00,
2013-04-08 22:40:00,47.4,29.8,29.98,SSE,152,0.0,13.0,50,0.00,,,0.00,VWS V14.00,2013-04-09 02:40:00,
2013-04-08 22:46:00,47.2,29.6,29.98,South,181,0.0,13.0,50,0.00,,,0.00,VWS V14.00,2013-04-09 02:46:00,
2013-04-08 22:52:00,47.4,29.8,29.97,SSE,148,0.0,13.0,50,0.00,,,0.00,VWS V14.00,2013-04-09 02:52:00,
2013-04-08 22:58:00,47.4,30.1,29.97,SSE,148,0.0,13.0,51,0.00,,,0.00,VWS V14.00,2013-04-09 02:58:00,
2013-04-08 23:04:00,47.8,30.6,29.96,East,87,0.0,13.0,51,0.00,,,0.00,VWS V14.00,2013-04-09 03:04:00,
2013-04-08 23:10:00,48.3,31.1,29.96,SE,125,3.4,13.0,51,0.00,,,0.00,VWS V14.00,2013-04-09 03:10:00,
2013-04-08 23:17:00,49.2,31.4,29.96,East,80,5.2,13.0,50,0.00,,,0.00,VWS V14.00,2013-04-09 03:17:00,
2013-04-08 23:23:00,49.8,31.7,29.96,SE,143,4.2,13.0,50,0.00,,,0.00,VWS V14.00,2013-04-09 03:23:00,
2013-04-08 23:29:00,50.2,32.2,29.95,SE,146,5.8,13.0,50,0.00,,,0.00,VWS V14.00,2013-04-09 03:29:00,
2013-04-08 23:35:00,50.3,32.7,29.95,SSE,156,4.6,13.0,51,0.00,,,0.00,VWS V14.00,2013-04-09 03:35:00,
2013-04-08 23:41:00,50.6,33.1,29.94,SE,128,6.5,13.0,51,0.00,,,0.00,VWS V14.00,2013-04-09 03:41:00,
2013-04-08 23:46:00,50.6,33.2,29.93,ESE,107,5.5,13.0,51,0.00,,,0.00,VWS V14.00,2013-04-09 03:46:00,
2013-04-08 23:50:00,49.8,34.6,29.87,NNE,14,7.2,21.5,56,0.00,,,0.00,VWS V14.00,2013-04-09 03:50:00,
2013-04-08 23:53:00,50.8,33.1,29.93,ESE,120,4.3,12.5,51,0.00,,,0.00,VWS V14.00,2013-04-09 03:53:00,
2013-04-08 23:59:00,50.9,33.0,29.94,East,98,3.3,10.6,50,0.00,,,0.00,VWS V14.00,2013-04-09 03:59:00,